Time;durP1;ratioP1;P1;durP2;ratioP2;P2;SDS_P1;SDS_P2;PMS_P1;PMS_P2;Temp;Humidity;BMP_temperature;BMP_pressure;BME280_temperature;BME280_humidity;BME280_pressure;Samples;Min_cycle;Max_cycle;Signal;HPM_P1;HPM_P2
2024/01/26 00:02:58;;;;;;;40.35;28.48;;;;;;;7.99;100.00;101922.69;10533363;28;20475;-78
2024/01/26 00:07:59;;;;;;;43.15;31.85;;;;;;;8.01;100.00;101923.72;10532146;28;20118;-79
2024/01/26 00:13:00;;;;;;;47.13;29.63;;;;;;;8.03;100.00;101916.00;10548924;28;20078;-78
2024/01/26 00:18:00;;;;;;;44.45;28.48;;;;;;;8.05;100.00;101907.50;10559274;28;20122;-82
2024/01/26 00:23:01;;;;;;;41.42;29.40;;;;;;;8.08;100.00;101912.94;10556451;28;20081;-78
2024/01/26 00:28:04;;;;;;;45.72;30.38;;;;;;;8.14;100.00;101915.09;10564252;28;20380;-78
2024/01/26 00:33:05;;;;;;;39.88;27.48;;;;;;;8.17;100.00;101902.28;10566922;28;20039;-79
2024/01/26 00:38:05;;;;;;;41.38;28.85;;;;;;;8.22;100.00;101906.13;10566249;28;20051;-78
2024/01/26 00:43:06;;;;;;;37.67;25.48;;;;;;;8.21;100.00;101917.38;10546472;28;20122;-78
2024/01/26 00:48:06;;;;;;;33.90;25.15;;;;;;;8.21;100.00;101911.25;10545673;28;20471;-78
2024/01/26 00:53:07;;;;;;;36.00;26.00;;;;;;;8.26;100.00;101907.28;10566379;28;20032;-79
2024/01/26 00:58:07;;;;;;;36.60;23.55;;;;;;;8.32;100.00;101919.84;10565195;28;20051;-78
2024/01/26 01:03:08;;;;;;;41.50;25.38;;;;;;;8.28;100.00;101910.91;10565807;28;20034;-78
2024/01/26 01:08:08;;;;;;;37.15;26.10;;;;;;;8.27;100.00;101898.66;10519275;28;20062;-78
2024/01/26 01:13:10;;;;;;;34.85;24.40;;;;;;;8.30;100.00;101913.63;10565495;28;20078;-78
2024/01/26 01:18:10;;;;;;;40.05;21.83;;;;;;;8.30;100.00;101908.41;10534101;28;20130;-79
2024/01/26 01:23:11;;;;;;;27.38;20.98;;;;;;;8.34;100.00;101905.22;10547193;28;20032;-80
2024/01/26 01:28:11;;;;;;;28.40;20.20;;;;;;;8.37;100.00;101914.19;10564037;28;20196;-78
2024/01/26 01:33:12;;;;;;;29.33;19.95;;;;;;;8.38;100.00;101915.09;10546380;28;20041;-78
2024/01/26 01:38:12;;;;;;;29.42;18.85;;;;;;;8.40;100.00;101915.22;10532747;28;20123;-79
2024/01/26 01:43:19;;;;;;;24.90;17.95;;;;;;;8.34;100.00;101910.44;10547050;28;20382;-79
2024/01/26 01:48:20;;;;;;;25.27;16.75;;;;;;;8.40;100.00;101907.41;10560570;28;20126;-78
2024/01/26 01:53:20;;;;;;;28.17;20.77;;;;;;;8.33;100.00;101883.47;10553308;28;20035;-78
2024/01/26 01:58:21;;;;;;;25.77;16.40;;;;;;;8.31;100.00;101863.28;10573244;28;20044;-78
2024/01/26 02:03:21;;;;;;;21.08;14.45;;;;;;;8.28;100.00;101868.25;10538937;28;20535;-78
2024/01/26 02:08:22;;;;;;;23.08;16.33;;;;;;;8.26;100.00;101848.97;10554453;28;20127;-78
2024/01/26 02:13:22;;;;;;;19.10;13.18;;;;;;;8.22;100.00;101863.53;10543870;28;20062;-78
2024/01/26 02:18:23;;;;;;;18.17;13.68;;;;;;;8.22;100.00;101861.81;10572594;28;20059;-77
2024/01/26 02:23:23;;;;;;;19.73;13.27;;;;;;;8.23;100.00;101849.69;10572919;28;20039;-77
2024/01/26 02:28:24;;;;;;;14.48;12.02;;;;;;;8.19;100.00;101842.44;10537876;28;20135;-77
2024/01/26 02:33:24;;;;;;;16.23;11.25;;;;;;;8.13;100.00;101834.16;10572025;28;20109;-77
2024/01/26 02:38:25;;;;;;;19.10;13.23;;;;;;;8.03;100.00;101822.13;10534785;28;20544;-77
2024/01/26 02:43:25;;;;;;;18.30;12.52;;;;;;;8.02;100.00;101817.72;10553297;28;20184;-77
2024/01/26 02:48:26;;;;;;;15.35;11.60;;;;;;;8.02;100.00;101828.16;10525605;28;20051;-78
2024/01/26 02:53:26;;;;;;;21.35;12.77;;;;;;;8.01;100.00;101827.25;10570829;28;20187;-77
2024/01/26 02:58:27;;;;;;;18.95;12.50;;;;;;;8.04;100.00;101800.47;10552237;28;20043;-77
2024/01/26 03:03:27;;;;;;;18.65;11.82;;;;;;;8.13;100.00;101802.88;10569803;28;20265;-77
2024/01/26 03:08:28;;;;;;;26.48;12.98;;;;;;;8.10;100.00;101787.88;10552309;28;20040;-77
2024/01/26 03:13:28;;;;;;;21.38;13.40;;;;;;;8.12;100.00;101790.63;10570295;28;20563;-77
2024/01/26 03:18:29;;;;;;;17.83;13.45;;;;;;;8.13;100.00;101775.06;10552688;28;20040;-77
2024/01/26 03:23:30;;;;;;;18.23;13.40;;;;;;;8.14;100.00;101789.94;10552492;28;20191;-77
2024/01/26 03:28:31;;;;;;;20.65;13.30;;;;;;;8.19;100.00;101785.94;10552197;28;20177;-77
2024/01/26 03:33:31;;;;;;;14.98;12.35;;;;;;;8.21;100.00;101766.09;10551729;28;20042;-78
2024/01/26 03:38:32;;;;;;;18.65;11.82;;;;;;;8.26;100.00;101749.88;10556713;28;20123;-78
2024/01/26 03:43:32;;;;;;;17.85;11.75;;;;;;;8.31;100.00;101720.72;10550964;28;20120;-78
2024/01/26 03:48:33;;;;;;;16.67;9.73;;;;;;;8.34;100.00;101731.38;10550461;28;20051;-77
2024/01/26 03:53:33;;;;;;;17.00;10.18;;;;;;;8.37;100.00;101723.78;10568727;28;20043;-77
2024/01/26 03:58:34;;;;;;;15.23;11.18;;;;;;;8.38;100.00;101716.84;10567104;28;20455;-77
2024/01/26 04:03:34;;;;;;;13.63;9.32;;;;;;;8.42;100.00;101708.44;10559448;28;20216;-77
2024/01/26 04:08:35;;;;;;;13.45;8.15;;;;;;;8.41;100.00;101701.41;10551328;28;20130;-77
2024/01/26 04:13:35;;;;;;;9.90;6.30;;;;;;;8.43;100.00;101672.81;10548358;28;20078;-78
2024/01/26 04:18:36;;;;;;;11.88;8.10;;;;;;;8.21;100.00;101658.28;10551041;28;20063;-77
2024/01/26 04:23:36;;;;;;;9.85;6.78;;;;;;;7.99;100.00;101661.06;10566314;28;20454;-78
2024/01/26 04:28:37;;;;;;;8.60;6.38;;;;;;;8.03;100.00;101663.09;10551767;28;20183;-77
2024/01/26 04:33:37;;;;;;;10.20;8.00;;;;;;;7.96;100.00;101638.31;10548511;28;20073;-77
2024/01/26 04:38:38;;;;;;;8.40;6.00;;;;;;;7.83;100.00;101617.41;10530675;28;20035;-77
2024/01/26 04:43:38;;;;;;;11.30;6.47;;;;;;;7.69;100.00;101609.50;10565726;28;20059;-77
2024/01/26 04:48:39;;;;;;;11.82;7.15;;;;;;;7.75;100.00;101599.50;10553661;28;20044;-77
2024/01/26 04:53:39;;;;;;;10.52;6.50;;;;;;;7.70;100.00;101600.88;10508003;28;20040;-77
2024/01/26 04:58:40;;;;;;;11.80;7.15;;;;;;;7.69;100.00;101585.13;10535294;28;20119;-77
2024/01/26 05:03:40;;;;;;;12.00;6.25;;;;;;;7.68;100.00;101594.66;10547962;28;20059;-77
2024/01/26 05:08:41;;;;;;;11.55;7.70;;;;;;;7.73;100.00;101579.34;10535714;28;20048;-77
2024/01/26 05:13:41;;;;;;;12.07;7.63;;;;;;;7.82;100.00;101576.50;10507575;28;20048;-77
2024/01/26 05:18:42;;;;;;;13.20;8.13;;;;;;;7.79;100.00;101582.38;10503993;28;20040;-77
2024/01/26 05:23:42;;;;;;;10.75;6.85;;;;;;;7.92;100.00;101576.34;10523068;28;20122;-76
2024/01/26 05:28:43;;;;;;;12.00;7.75;;;;;;;7.94;100.00;101554.78;10488566;28;20437;-76
2024/01/26 05:33:44;;;;;;;10.10;6.50;;;;;;;7.95;100.00;101568.72;10523317;28;20127;-77
2024/01/26 05:38:44;;;;;;;12.00;6.25;;;;;;;8.11;100.00;101567.19;10519118;28;20193;-77
2024/01/26 05:43:45;;;;;;;12.60;7.07;;;;;;;8.20;100.00;101550.44;10524454;28;20063;-77
2024/01/26 05:48:45;;;;;;;9.55;6.82;;;;;;;8.21;100.00;101552.25;10528412;28;20554;-78
2024/01/26 05:53:49;;;;;;;12.05;6.82;;;;;;;8.18;100.00;101528.59;10524281;28;20131;-77
2024/01/26 05:58:52;;;;;;;10.30;6.55;;;;;;;8.18;100.00;101544.22;10522169;28;20028;-77
2024/01/26 06:03:52;;;;;;;10.40;6.22;;;;;;;8.19;100.00;101529.50;10524548;28;20039;-77
2024/01/26 06:08:53;;;;;;;10.45;6.97;;;;;;;8.18;100.00;101515.53;10520523;28;20437;-78
2024/01/26 06:13:54;;;;;;;11.25;7.30;;;;;;;8.20;100.00;101505.25;10471730;28;20609;-77
2024/01/26 06:18:54;;;;;;;10.45;6.28;;;;;;;8.14;100.00;101504.81;10522113;28;20131;-77
2024/01/26 06:23:55;;;;;;;13.50;7.53;;;;;;;8.08;100.00;101487.97;10522144;28;20093;-76
2024/01/26 06:28:55;;;;;;;11.85;7.70;;;;;;;8.02;100.00;101505.78;10520792;28;20134;-80
2024/01/26 06:33:56;;;;;;;14.13;7.68;;;;;;;8.02;100.00;101511.00;10508855;28;20166;-75
2024/01/26 06:38:56;;;;;;;12.50;9.55;;;;;;;7.99;100.00;101518.63;10507030;28;20032;-76
2024/01/26 06:43:57;;;;;;;13.68;8.82;;;;;;;8.00;100.00;101512.59;10512893;28;20143;-76
2024/01/26 06:48:57;;;;;;;10.35;8.05;;;;;;;7.98;100.00;101509.00;10531785;28;20489;-76
2024/01/26 06:54:01;;;;;;;15.80;9.93;;;;;;;8.01;100.00;101521.31;10572740;28;20399;-76
2024/01/26 06:59:01;;;;;;;12.32;8.80;;;;;;;8.04;100.00;101525.06;10569288;28;20032;-76
2024/01/26 07:04:02;;;;;;;13.73;9.40;;;;;;;7.98;100.00;101534.13;10553045;28;20126;-76
2024/01/26 07:09:02;;;;;;;13.13;9.90;;;;;;;8.03;100.00;101525.84;10552215;28;20145;-75
2024/01/26 07:14:03;;;;;;;15.23;11.50;;;;;;;8.06;100.00;101522.53;10570785;28;20558;-75
2024/01/26 07:19:03;;;;;;;14.48;10.05;;;;;;;8.08;100.00;101519.25;10547809;28;20130;-76
2024/01/26 07:24:04;;;;;;;15.32;10.73;;;;;;;8.11;100.00;101539.41;10549667;28;20066;-76
2024/01/26 07:29:05;;;;;;;17.08;11.88;;;;;;;8.18;100.00;101530.31;10550439;28;20035;-76
2024/01/26 07:34:06;;;;;;;18.65;11.77;;;;;;;8.22;100.00;101525.38;10549320;27;20130;-75
2024/01/26 07:39:07;;;;;;;17.02;11.70;;;;;;;8.32;100.00;101524.31;10549105;28;20130;-76
2024/01/26 07:44:07;;;;;;;17.58;12.57;;;;;;;8.37;100.00;101498.53;10550780;28;20383;-77
2024/01/26 07:49:08;;;;;;;24.55;12.98;;;;;;;8.48;100.00;101507.09;10526868;28;20074;-77
2024/01/26 07:54:10;;;;;;;21.13;12.63;;;;;;;8.53;100.00;101510.94;10510402;28;20050;-77
2024/01/26 07:59:11;;;;;;;15.27;12.65;;;;;;;8.61;100.00;101509.75;10507729;28;20560;-80
2024/01/26 08:04:11;;;;;;;18.13;12.18;;;;;;;8.67;100.00;101524.88;10528909;28;20120;-76
2024/01/26 08:09:12;;;;;;;16.10;11.07;;;;;;;8.76;100.00;101515.03;10490855;28;20040;-78
2024/01/26 08:14:12;;;;;;;19.70;11.25;;;;;;;8.80;100.00;101537.94;10507941;28;20159;-76
2024/01/26 08:19:13;;;;;;;13.80;9.90;;;;;;;8.86;100.00;101547.88;10507611;28;20484;-76
2024/01/26 08:24:13;;;;;;;14.50;10.68;;;;;;;8.96;100.00;101555.50;10525978;28;20119;-76
2024/01/26 08:29:14;;;;;;;13.48;10.05;;;;;;;9.04;100.00;101561.22;10525319;28;20436;-77
2024/01/26 08:34:14;;;;;;;14.25;10.82;;;;;;;9.08;100.00;101567.56;10507151;28;20082;-76
2024/01/26 08:39:15;;;;;;;15.70;11.10;;;;;;;9.14;100.00;101552.28;10507568;28;20040;-77
2024/01/26 08:44:15;;;;;;;19.88;11.20;;;;;;;9.15;100.00;101571.47;10505699;28;20032;-75
2024/01/26 08:49:16;;;;;;;17.52;11.77;;;;;;;9.18;100.00;101577.81;10530241;28;20050;-76
2024/01/26 08:54:17;;;;;;;15.68;12.57;;;;;;;9.19;100.00;101565.63;10526870;28;20071;-81
2024/01/26 08:59:17;;;;;;;22.00;11.15;;;;;;;9.22;100.00;101564.13;10534466;28;20035;-76
2024/01/26 09:04:18;;;;;;;15.70;11.10;;;;;;;9.28;100.00;101567.94;10499034;28;20514;-76
2024/01/26 09:09:18;;;;;;;18.40;11.48;;;;;;;9.35;100.00;101573.66;10506196;28;20115;-75
2024/01/26 09:14:19;;;;;;;17.70;10.27;;;;;;;9.34;100.00;101566.59;10523262;28;20127;-76
2024/01/26 09:19:19;;;;;;;16.40;11.30;;;;;;;9.35;100.00;101577.97;10523316;28;20107;-76
2024/01/26 09:24:20;;;;;;;15.57;11.43;;;;;;;9.36;100.00;101571.94;10505087;28;20070;-77
2024/01/26 09:29:20;;;;;;;14.82;9.48;;;;;;;9.37;100.00;101566.81;10504934;28;20123;-77
2024/01/26 09:34:21;;;;;;;14.68;11.02;;;;;;;9.37;100.00;101579.88;10523839;28;20194;-76
2024/01/26 09:39:21;;;;;;;14.80;10.80;;;;;;;9.39;100.00;101586.09;10488841;28;20047;-75
2024/01/26 09:44:22;;;;;;;16.05;9.65;;;;;;;9.44;100.00;101586.41;10504039;28;20115;-77
2024/01/26 09:49:23;;;;;;;11.18;8.30;;;;;;;9.50;100.00;101599.88;10506112;28;20071;-77
2024/01/26 09:54:24;;;;;;;16.93;8.60;;;;;;;9.54;100.00;101600.94;10504905;28;20460;-77
2024/01/26 09:59:24;;;;;;;11.93;7.50;;;;;;;9.59;100.00;101616.94;10487663;28;20046;-77
2024/01/26 10:04:25;;;;;;;15.50;7.32;;;;;;;9.59;100.00;101620.44;10505043;28;20040;-76
2024/01/26 10:09:25;;;;;;;14.98;6.07;;;;;;;9.54;100.00;101661.06;10506163;28;20134;-77
2024/01/26 10:14:26;;;;;;;8.73;4.60;;;;;;;9.28;100.00;101668.09;10511627;28;20119;-75
2024/01/26 10:19:27;;;;;;;8.32;3.75;;;;;;;9.12;100.00;101681.88;10548219;28;20440;-75
2024/01/26 10:24:28;;;;;;;12.10;4.38;;;;;;;9.00;100.00;101710.66;10498673;28;20040;-76
2024/01/26 10:29:28;;;;;;;9.98;3.40;;;;;;;8.79;100.00;101710.13;10544549;28;20028;-75
2024/01/26 10:34:29;;;;;;;6.80;3.28;;;;;;;8.72;100.00;101714.00;10518709;28;20039;-78
2024/01/26 10:39:29;;;;;;;10.10;3.08;;;;;;;8.66;100.00;101688.41;10497890;28;20123;-76
2024/01/26 10:44:31;;;;;;;12.43;3.45;;;;;;;9.03;100.00;101676.03;10496298;28;20044;-76
2024/01/26 10:49:32;;;;;;;13.90;3.70;;;;;;;9.51;100.00;101660.84;10513975;28;20399;-76
2024/01/26 10:54:32;;;;;;;13.63;2.65;;;;;;;9.51;100.00;101638.25;10497875;28;20063;-76
2024/01/26 10:59:34;;;;;;;6.07;2.40;;;;;;;9.46;100.00;101634.44;10495327;28;20067;-77
2024/01/26 11:04:34;;;;;;;5.53;2.33;;;;;;;9.63;100.00;101655.53;10495892;28;20043;-77
2024/01/26 11:09:38;;;;;;;5.13;3.00;;;;;;;10.00;100.00;101676.16;10522651;28;20123;-77
2024/01/26 11:14:40;;;;;;;13.85;3.65;;;;;;;9.31;100.00;101730.09;10515922;28;20074;-77
2024/01/26 11:19:48;;;;;;;8.07;2.60;;;;;;;10.09;100.00;101754.28;10528088;28;20102;-77
2024/01/26 11:24:48;;;;;;;13.68;2.55;;;;;;;10.96;100.00;101818.19;10493249;28;20067;-77
2024/01/26 11:29:49;;;;;;;3.83;1.90;;;;;;;11.11;100.00;101847.03;10492880;28;20459;-77
2024/01/26 11:34:59;;;;;;;7.20;1.58;;;;;;;11.82;100.00;101859.94;10492583;28;20079;-78
2024/01/26 11:40:00;;;;;;;6.30;2.00;;;;;;;12.44;100.00;101926.47;10492987;28;20548;-77
2024/01/26 11:45:16;;;;;;;2.55;1.40;;;;;;;12.01;100.00;101986.16;10475379;28;20032;-78
2024/01/26 11:50:16;;;;;;;2.85;1.52;;;;;;;11.02;100.00;102012.44;10540989;28;20039;-76
2024/01/26 11:55:16;;;;;;;3.50;1.40;;;;;;;10.75;100.00;102000.16;10544123;28;20543;-77
2024/01/26 12:00:18;;;;;;;3.38;2.30;;;;;;;11.28;100.00;102036.78;10515593;28;20049;-77
2024/01/26 12:05:19;;;;;;;2.33;1.20;;;;;;;11.51;100.00;102039.00;10558768;28;20071;-77
2024/01/26 12:10:19;;;;;;;6.35;2.33;;;;;;;11.29;100.00;102084.84;10549524;28;20135;-77
2024/01/26 12:15:20;;;;;;;2.25;1.23;;;;;;;9.83;100.00;102143.09;10509850;28;20177;-77
2024/01/26 12:20:21;;;;;;;9.63;1.88;;;;;;;8.58;100.00;102142.69;10531604;28;20486;-77
2024/01/26 12:25:26;;;;;;;8.57;2.25;;;;;;;8.37;100.00;102125.50;10567078;28;20126;-77
2024/01/26 12:30:27;;;;;;;5.90;1.42;;;;;;;8.70;100.00;102129.69;10551222;28;20048;-79
2024/01/26 12:35:27;;;;;;;4.70;1.50;;;;;;;9.66;100.00;102147.16;10546529;28;20119;-77
2024/01/26 12:40:28;;;;;;;6.72;1.33;;;;;;;9.69;100.00;102183.97;10514994;28;20139;-78
2024/01/26 12:45:28;;;;;;;4.10;2.03;;;;;;;9.48;100.00;102199.91;10532343;28;20123;-77
2024/01/26 12:50:29;;;;;;;4.78;1.60;;;;;;;8.62;100.00;102221.38;10529991;28;20061;-77
2024/01/26 12:55:29;;;;;;;5.40;2.10;;;;;;;7.78;100.00;102206.97;10509597;28;20119;-77
2024/01/26 13:00:30;;;;;;;8.05;2.55;;;;;;;8.64;100.00;102235.44;10507210;28;20494;-77
2024/01/26 13:05:31;;;;;;;9.75;2.08;;;;;;;9.83;100.00;102246.00;10521490;28;20052;-79
2024/01/26 13:10:33;;;;;;;7.88;3.15;;;;;;;11.69;100.00;102289.28;10518683;28;20118;-77
2024/01/26 13:15:33;;;;;;;8.32;2.75;;;;;;;11.69;100.00;102340.84;10524055;28;20032;-79
2024/01/26 13:20:34;;;;;;;4.65;2.17;;;;;;;12.18;100.00;102354.63;10508531;28;20147;-78
2024/01/26 13:25:34;;;;;;;5.22;1.65;;;;;;;11.88;100.00;102362.25;10524613;28;20055;-79
2024/01/26 13:30:35;;;;;;;5.55;2.08;;;;;;;12.37;100.00;102382.06;10504360;28;20032;-79
2024/01/26 13:35:35;;;;;;;7.72;2.75;;;;;;;10.34;100.00;102392.66;10523232;28;20036;-77
2024/01/26 13:40:36;;;;;;;8.25;2.42;;;;;;;9.24;100.00;102374.00;10504248;28;20093;-80
2024/01/26 13:45:36;;;;;;;7.57;1.90;;;;;;;8.66;100.00;102377.41;10507877;28;20123;-79
2024/01/26 13:50:38;;;;;;;7.22;2.05;;;;;;;8.16;100.00;102369.88;10549133;28;20382;-80
2024/01/26 13:55:38;;;;;;;5.73;2.30;;;;;;;7.87;100.00;102344.06;10565599;28;20518;-76
2024/01/26 14:00:40;;;;;;;5.97;2.58;;;;;;;7.56;100.00;102364.97;10526843;28;20128;-76
2024/01/26 14:05:41;;;;;;;6.20;1.88;;;;;;;7.42;100.00;102377.72;10563987;28;20084;-75
2024/01/26 14:10:41;;;;;;;7.93;4.40;;;;;;;7.36;100.00;102379.81;10528986;28;20042;-74
2024/01/26 14:15:42;;;;;;;8.48;2.08;;;;;;;7.45;100.00;102404.03;10564128;28;20040;-77
2024/01/26 14:20:42;;;;;;;5.00;2.13;;;;;;;7.84;100.00;102407.25;10504848;28;20105;-76
2024/01/26 14:25:43;;;;;;;10.45;2.42;;;;;;;8.55;100.00;102422.63;10546229;28;20044;-76
2024/01/26 14:30:44;;;;;;;5.30;2.00;;;;;;;9.37;100.00;102464.72;10563444;27;20157;-75
2024/01/26 14:35:44;;;;;;;11.20;3.10;;;;;;;9.89;100.00;102496.59;10528413;28;20126;-76
2024/01/26 14:40:45;;;;;;;9.27;2.92;;;;;;;9.88;100.00;102507.84;10511667;28;20035;-77
2024/01/26 14:45:45;;;;;;;14.20;3.47;;;;;;;8.42;100.00;102517.22;10562817;28;20131;-77
2024/01/26 14:50:46;;;;;;;7.55;3.17;;;;;;;7.89;100.00;102506.72;10563137;28;20039;-76
2024/01/26 14:55:46;;;;;;;6.60;2.53;;;;;;;7.52;100.00;102507.06;10530137;28;20063;-76
2024/01/26 15:00:47;;;;;;;9.45;3.10;;;;;;;7.31;100.00;102520.06;10549249;28;20123;-77
2024/01/26 15:05:47;;;;;;;8.13;3.22;;;;;;;6.98;100.00;102531.94;10553287;28;20070;-77
2024/01/26 15:10:49;;;;;;;7.13;3.55;;;;;;;6.87;100.00;102535.28;10535420;28;20055;-76
2024/01/26 15:15:50;;;;;;;11.90;3.88;;;;;;;6.71;100.00;102546.00;10550862;28;20503;-77
2024/01/26 15:20:50;;;;;;;6.15;2.80;;;;;;;6.60;100.00;102563.22;10552512;28;20043;-77
2024/01/26 15:25:51;;;;;;;5.10;2.63;;;;;;;6.30;100.00;102564.84;10570159;28;20055;-77
2024/01/26 15:30:51;;;;;;;13.88;4.15;;;;;;;6.12;100.00;102574.47;10552658;28;20395;-76
2024/01/26 15:35:52;;;;;;;7.90;3.08;;;;;;;5.96;100.00;102588.59;10551382;28;20174;-76
2024/01/26 15:40:52;;;;;;;11.52;2.97;;;;;;;5.79;100.00;102587.00;10570219;28;20119;-76
2024/01/26 15:45:53;;;;;;;8.25;2.80;;;;;;;5.69;100.00;102585.22;10551188;28;20550;-76
2024/01/26 15:50:54;;;;;;;6.32;2.28;;;;;;;5.57;100.00;102612.63;10551349;28;20088;-77
2024/01/26 15:55:54;;;;;;;5.85;2.65;;;;;;;5.48;100.00;102615.25;10523887;28;20498;-76
2024/01/26 16:00:55;;;;;;;12.73;3.00;;;;;;;5.35;100.00;102628.72;10506741;28;20131;-76
2024/01/26 16:05:55;;;;;;;6.78;2.42;;;;;;;5.15;100.00;102631.97;10506790;28;20065;-77
2024/01/26 16:10:58;;;;;;;12.23;4.10;;;;;;;5.00;100.00;102646.97;10508506;28;20050;-77
2024/01/26 16:15:59;;;;;;;10.07;3.80;;;;;;;4.94;100.00;102638.56;10508469;28;20488;-78
2024/01/26 16:20:59;;;;;;;13.05;3.05;;;;;;;4.97;100.00;102657.94;10508361;28;20123;-76
2024/01/26 16:26:00;;;;;;;14.60;8.88;;;;;;;4.99;100.00;102669.38;10506653;28;20126;-75
2024/01/26 16:31:00;;;;;;;10.77;3.45;;;;;;;5.11;100.00;102684.34;10506574;28;20119;-75
2024/01/26 16:36:01;;;;;;;9.43;3.90;;;;;;;5.13;100.00;102701.91;10506370;28;20530;-77
2024/01/26 16:41:01;;;;;;;18.95;7.97;;;;;;;5.13;100.00;102709.72;10507110;28;20037;-78
2024/01/26 16:46:02;;;;;;;26.27;13.80;;;;;;;5.19;100.00;102718.88;10506072;28;20126;-75
2024/01/26 16:51:03;;;;;;;10.18;4.63;;;;;;;5.16;100.00;102734.13;10532197;28;20484;-77
2024/01/26 16:56:04;;;;;;;8.32;3.22;;;;;;;5.12;100.00;102738.09;10506044;28;20040;-77
2024/01/26 17:01:04;;;;;;;6.97;2.75;;;;;;;5.03;100.00;102737.16;10522938;28;20077;-76
2024/01/26 17:06:05;;;;;;;13.43;4.30;;;;;;;4.90;100.00;102758.38;10506095;28;20115;-76
2024/01/26 17:11:05;;;;;;;9.75;4.18;;;;;;;4.77;100.00;102751.03;10522542;28;20060;-78
2024/01/26 17:16:07;;;;;;;14.52;3.90;;;;;;;4.60;100.00;102757.09;10505415;28;20052;-77
2024/01/26 17:21:07;;;;;;;10.20;4.57;;;;;;;4.42;100.00;102764.84;10488848;28;20450;-77
2024/01/26 17:26:08;;;;;;;10.30;3.90;;;;;;;4.38;100.00;102767.88;10503862;28;20170;-77
2024/01/26 17:31:10;;;;;;;14.13;4.85;;;;;;;4.09;100.00;102786.50;10522621;28;20036;-77
2024/01/26 17:36:11;;;;;;;12.85;4.68;;;;;;;3.88;100.00;102782.53;10505276;28;20060;-77
2024/01/26 17:41:11;;;;;;;6.13;2.65;;;;;;;3.64;100.00;102781.78;10520794;28;20127;-78
2024/01/26 17:46:12;;;;;;;11.95;4.55;;;;;;;3.44;100.00;102779.66;10488784;28;20071;-78
2024/01/26 17:51:13;;;;;;;16.53;5.10;;;;;;;3.27;100.00;102772.66;10530439;28;20044;-77
2024/01/26 17:56:13;;;;;;;16.38;4.82;;;;;;;3.05;100.00;102778.09;10511922;28;20288;-77
2024/01/26 18:01:14;;;;;;;9.45;3.38;;;;;;;2.86;100.00;102775.19;10523789;28;20128;-75
2024/01/26 18:06:14;;;;;;;8.82;3.45;;;;;;;2.79;100.00;102784.88;10505913;28;20079;-76
2024/01/26 18:11:15;;;;;;;9.82;2.38;;;;;;;2.63;100.00;102790.00;10504640;28;20377;-76
2024/01/26 18:16:16;;;;;;;19.65;4.80;;;;;;;2.46;100.00;102792.38;10503643;28;20123;-77
2024/01/26 18:21:16;;;;;;;8.85;3.78;;;;;;;2.25;100.00;102807.31;10500814;28;20462;-77
2024/01/26 18:26:17;;;;;;;11.38;4.07;;;;;;;2.13;100.00;102805.94;10502265;28;20135;-76
2024/01/26 18:31:17;;;;;;;14.93;2.78;;;;;;;2.00;100.00;102783.88;10520868;28;20032;-75
2024/01/26 18:36:18;;;;;;;11.07;3.40;;;;;;;1.85;100.00;102782.16;10512687;28;20128;-76
2024/01/26 18:41:23;;;;;;;11.45;3.72;;;;;;;1.75;100.00;102780.19;10511950;28;20444;-76
2024/01/26 18:46:24;;;;;;;12.68;4.63;;;;;;;1.71;100.00;102789.25;10495937;28;20062;-77
2024/01/26 18:51:24;;;;;;;10.13;3.58;;;;;;;1.68;100.00;102785.41;10555030;28;20437;-76
2024/01/26 18:56:25;;;;;;;25.73;5.73;;;;;;;1.57;100.00;102797.06;10553405;28;20052;-76
2024/01/26 19:01:25;;;;;;;10.63;3.35;;;;;;;1.55;100.00;102807.22;10553959;28;20051;-76
2024/01/26 19:06:27;;;;;;;7.93;3.75;;;;;;;1.44;100.00;102815.41;10569086;28;20096;-76
2024/01/26 19:11:27;;;;;;;13.07;5.63;;;;;;;1.43;100.00;102826.47;10553797;28;20039;-76
2024/01/26 19:16:29;;;;;;;19.30;5.80;;;;;;;1.39;100.00;102835.50;10569985;28;20055;-76
2024/01/26 19:21:30;;;;;;;13.57;4.68;;;;;;;1.36;100.00;102826.50;10547497;28;20047;-77
2024/01/26 19:26:30;;;;;;;20.83;5.60;;;;;;;1.26;100.00;102830.56;10553355;28;20055;-76
2024/01/26 19:31:31;;;;;;;13.48;5.35;;;;;;;1.24;100.00;102838.88;10569776;28;20043;-77
2024/01/26 19:36:31;;;;;;;14.38;5.68;;;;;;;1.16;100.00;102846.63;10569462;28;20148;-76
2024/01/26 19:41:32;;;;;;;14.02;4.55;;;;;;;1.21;100.00;102843.66;10568942;28;20096;-76
2024/01/26 19:46:32;;;;;;;11.48;3.70;;;;;;;1.26;100.00;102856.38;10551544;28;20059;-77
2024/01/26 19:51:33;;;;;;;10.17;3.53;;;;;;;1.16;100.00;102864.69;10551558;28;20130;-76
2024/01/26 19:56:33;;;;;;;20.50;5.83;;;;;;;1.02;100.00;102869.88;10570063;28;20548;-77
2024/01/26 20:01:34;;;;;;;13.20;4.77;;;;;;;0.93;100.00;102873.94;10570939;28;20063;-77
2024/01/26 20:06:34;;;;;;;14.18;5.40;;;;;;;0.90;100.00;102871.00;10569018;28;20077;-77
2024/01/26 20:11:35;;;;;;;8.00;4.05;;;;;;;0.79;100.00;102873.22;10531690;28;20486;-77
2024/01/26 20:16:36;;;;;;;24.20;6.97;;;;;;;0.87;100.00;102880.19;10557327;27;20565;-77
2024/01/26 20:21:37;;;;;;;14.83;5.00;;;;;;;1.10;100.00;102883.69;10550745;27;20495;-77
2024/01/26 20:26:40;;;;;;;8.20;4.33;;;;;;;1.12;100.00;102883.13;10544002;28;20036;-77
2024/01/26 20:31:41;;;;;;;12.05;6.80;;;;;;;1.19;100.00;102878.69;10555103;27;20533;-77
2024/01/26 20:36:42;;;;;;;12.88;4.55;;;;;;;1.19;100.00;102887.34;10566047;27;20040;-77
2024/01/26 20:41:44;;;;;;;16.23;4.65;;;;;;;1.06;100.00;102891.81;10543284;28;20039;-77
2024/01/26 20:46:45;;;;;;;11.63;4.53;;;;;;;0.85;100.00;102897.16;10546710;28;20134;-77
2024/01/26 20:51:45;;;;;;;12.90;4.30;;;;;;;0.82;100.00;102904.50;10529643;28;20489;-77
2024/01/26 20:56:46;;;;;;;11.57;4.73;;;;;;;0.68;100.00;102905.44;10551919;28;20042;-77
2024/01/26 21:01:46;;;;;;;21.73;7.53;;;;;;;0.60;100.00;102912.97;10545050;27;20067;-77
2024/01/26 21:06:47;;;;;;;7.65;3.35;;;;;;;0.59;100.00;102917.22;10570564;27;20054;-77
2024/01/26 21:11:50;;;;;;;8.47;4.53;;;;;;;0.53;100.00;102917.38;10553069;28;20660;-77
2024/01/26 21:16:52;;;;;;;14.57;6.60;;;;;;;0.61;100.00;102919.97;10545264;27;20422;-77
2024/01/26 21:21:53;;;;;;;10.55;4.55;;;;;;;0.75;100.00;102917.41;10547699;27;20154;-77
2024/01/26 21:26:56;;;;;;;10.07;5.13;;;;;;;0.55;100.00;102920.16;10548307;28;20191;-77
2024/01/26 21:31:56;;;;;;;15.27;6.93;;;;;;;0.51;100.00;102920.53;10580183;27;20314;-77
2024/01/26 21:36:57;;;;;;;13.90;5.47;;;;;;;0.40;100.00;102926.94;10567859;27;20038;-77
2024/01/26 21:41:57;;;;;;;8.20;4.83;;;;;;;0.12;100.00;102916.78;10547184;28;20550;-77
2024/01/26 21:46:58;;;;;;;17.93;7.77;;;;;;;-0.01;100.00;102919.50;10565194;28;20043;-77
2024/01/26 21:51:58;;;;;;;13.67;4.20;;;;;;;-0.02;100.00;102927.03;10548555;28;20386;-79
2024/01/26 21:56:59;;;;;;;21.20;6.28;;;;;;;-0.14;100.00;102930.66;10546862;28;20051;-77
2024/01/26 22:02:02;;;;;;;8.03;4.37;;;;;;;-0.24;100.00;102934.69;10555436;28;20237;-77
2024/01/26 22:07:03;;;;;;;13.98;6.18;;;;;;;-0.29;100.00;102933.19;10555712;28;20399;-77
2024/01/26 22:12:03;;;;;;;17.40;6.80;;;;;;;-0.29;100.00;102946.06;10573335;28;20054;-77
2024/01/26 22:17:04;;;;;;;16.33;7.20;;;;;;;-0.37;100.00;102944.16;10545307;27;20054;-78
2024/01/26 22:22:04;;;;;;;11.60;6.77;;;;;;;-0.31;100.00;102942.38;10573301;27;20125;-78
2024/01/26 22:27:05;;;;;;;13.43;6.67;;;;;;;-0.31;100.00;102947.50;10565985;27;20127;-77
2024/01/26 22:32:05;;;;;;;10.93;5.30;;;;;;;-0.39;100.00;102951.69;10572120;28;20039;-78
2024/01/26 22:37:06;;;;;;;21.97;8.33;;;;;;;-0.45;100.00;102961.19;10548010;28;20048;-78
2024/01/26 22:42:06;;;;;;;10.67;5.80;;;;;;;-0.39;100.00;102961.97;10566235;27;20046;-78
2024/01/26 22:47:07;;;;;;;22.33;5.90;;;;;;;-0.45;100.00;102976.63;10572361;27;20201;-78